createdAt,value
2018-08-28T00:01:37.637Z,18.90
2018-08-28T00:04:06.248Z,18.90
2018-08-28T00:06:34.805Z,18.90
2018-08-28T00:09:03.497Z,18.90
2018-08-28T00:11:32.047Z,18.90
2018-08-28T00:14:00.642Z,18.90
2018-08-28T00:16:29.203Z,18.90
2018-08-28T00:18:57.738Z,18.90
2018-08-28T00:21:26.328Z,18.90
2018-08-28T00:23:54.895Z,18.90
2018-08-28T00:26:23.461Z,18.80
2018-08-28T00:28:52.214Z,18.80
2018-08-28T00:31:20.907Z,18.80
2018-08-28T00:33:49.404Z,18.80
2018-08-28T00:36:17.987Z,18.80
2018-08-28T00:38:46.637Z,18.80
2018-08-28T00:41:15.119Z,18.80
2018-08-28T00:43:43.677Z,18.80
2018-08-28T00:46:12.213Z,18.80
2018-08-28T00:48:40.791Z,18.70
2018-08-28T00:51:09.333Z,18.70
2018-08-28T00:53:37.829Z,18.70
2018-08-28T00:56:06.321Z,18.80
2018-08-28T00:58:34.831Z,18.70
2018-08-28T01:01:03.338Z,18.70
2018-08-28T01:03:31.856Z,18.70
2018-08-28T01:06:00.338Z,18.70
2018-08-28T01:08:29.059Z,18.70
2018-08-28T01:10:57.537Z,18.70
2018-08-28T01:13:26.093Z,18.70
2018-08-28T01:15:54.579Z,18.60
2018-08-28T01:18:23.117Z,18.60
2018-08-28T01:20:51.667Z,18.60
2018-08-28T01:23:20.186Z,18.60
2018-08-28T01:25:48.694Z,18.60
2018-08-28T01:28:17.300Z,18.60
2018-08-28T01:30:45.842Z,18.60
2018-08-28T01:33:14.397Z,18.60
2018-08-28T01:35:42.925Z,18.60
2018-08-28T01:38:11.480Z,18.50
2018-08-28T01:40:40.008Z,18.50
2018-08-28T01:43:13.906Z,18.50
2018-08-28T01:45:42.437Z,18.50
2018-08-28T01:48:10.995Z,18.60
2018-08-28T01:50:39.561Z,18.50
2018-08-28T01:53:08.104Z,18.50
2018-08-28T01:55:36.662Z,18.50
2018-08-28T01:58:05.272Z,18.50
2018-08-28T02:00:33.822Z,18.50
2018-08-28T02:03:02.444Z,18.50
2018-08-28T02:05:31.011Z,18.50
2018-08-28T02:07:59.547Z,18.40
2018-08-28T02:10:28.141Z,18.40
2018-08-28T02:12:56.703Z,18.50
2018-08-28T02:15:25.280Z,18.40
2018-08-28T02:17:53.861Z,18.40
2018-08-28T02:20:22.428Z,18.40
2018-08-28T02:22:51.008Z,18.40
2018-08-28T02:25:19.532Z,18.40
2018-08-28T02:27:48.148Z,18.40
2018-08-28T02:30:16.678Z,18.40
2018-08-28T02:32:45.203Z,18.30
2018-08-28T02:35:13.781Z,18.30
2018-08-28T02:37:42.344Z,18.30
2018-08-28T02:40:10.899Z,18.30
2018-08-28T02:42:39.469Z,18.30
2018-08-28T02:45:08.186Z,18.30
2018-08-28T02:47:36.777Z,18.30
2018-08-28T02:50:05.950Z,18.20
2018-08-28T02:52:34.476Z,18.20
2018-08-28T02:55:03.057Z,18.20
2018-08-28T02:57:31.587Z,18.20
2018-08-28T03:00:00.152Z,18.20
2018-08-28T03:02:28.699Z,18.20
2018-08-28T03:04:57.249Z,18.20
2018-08-28T03:07:25.807Z,18.20
2018-08-28T03:09:54.360Z,18.20
2018-08-28T03:12:22.882Z,18.20
2018-08-28T03:14:51.417Z,18.10
2018-08-28T03:17:19.949Z,18.10
2018-08-28T03:19:48.735Z,18.10
2018-08-28T03:22:17.348Z,18.10
2018-08-28T03:24:46.012Z,18.10
2018-08-28T03:27:14.575Z,18.10
2018-08-28T03:29:43.165Z,18.10
2018-08-28T03:32:11.739Z,18.00
2018-08-28T03:34:40.297Z,18.00
2018-08-28T03:37:08.850Z,18.00
2018-08-28T03:39:37.603Z,18.00
2018-08-28T03:42:06.249Z,18.00
2018-08-28T03:44:34.808Z,18.00
2018-08-28T03:47:03.450Z,18.00
2018-08-28T03:49:32.013Z,18.00
2018-08-28T03:52:00.545Z,17.90
2018-08-28T03:54:29.500Z,17.90
2018-08-28T03:56:58.069Z,17.90
2018-08-28T03:59:26.618Z,17.90
2018-08-28T04:01:55.164Z,17.90
2018-08-28T04:04:23.731Z,17.90
2018-08-28T04:06:52.334Z,17.90
2018-08-28T04:09:20.912Z,17.90
2018-08-28T04:11:49.531Z,17.80
2018-08-28T04:14:18.125Z,17.80
2018-08-28T04:16:46.675Z,17.80
2018-08-28T04:19:15.256Z,17.80
2018-08-28T04:21:43.790Z,17.80
2018-08-28T04:24:12.337Z,17.80
2018-08-28T04:26:40.859Z,17.80
2018-08-28T04:29:09.465Z,17.70
2018-08-28T04:31:38.002Z,17.70
2018-08-28T04:34:06.597Z,17.70
2018-08-28T04:36:35.132Z,17.70
2018-08-28T04:39:04.426Z,17.70
2018-08-28T04:41:32.972Z,17.70
2018-08-28T04:44:01.494Z,17.70
2018-08-28T04:46:30.067Z,17.70
2018-08-28T04:48:58.692Z,17.70
2018-08-28T04:51:27.767Z,17.60
2018-08-28T04:53:56.304Z,17.60
2018-08-28T04:56:24.903Z,17.60
2018-08-28T04:58:53.720Z,17.60
2018-08-28T05:01:22.333Z,17.60
2018-08-28T05:03:50.899Z,17.60
2018-08-28T05:06:19.447Z,17.60
2018-08-28T05:08:48.050Z,17.60
2018-08-28T05:11:16.636Z,17.60
2018-08-28T05:13:45.175Z,17.60
2018-08-28T05:16:13.739Z,17.50
2018-08-28T05:18:42.299Z,17.50
2018-08-28T05:21:10.860Z,17.60
2018-08-28T05:23:39.389Z,17.50
2018-08-28T05:26:07.972Z,17.50
2018-08-28T05:28:36.534Z,17.50
2018-08-28T05:31:05.127Z,17.50
2018-08-28T05:33:33.616Z,17.50
2018-08-28T05:36:02.161Z,17.50
2018-08-28T05:38:30.646Z,17.50
2018-08-28T05:40:59.186Z,17.50
2018-08-28T05:43:27.700Z,17.50
2018-08-28T05:45:56.317Z,17.50
2018-08-28T05:48:24.831Z,17.50
2018-08-28T05:50:53.348Z,17.50
2018-08-28T05:53:21.876Z,17.40
2018-08-28T05:55:50.484Z,17.50
2018-08-28T05:58:18.914Z,17.50
2018-08-28T06:00:47.471Z,17.50
2018-08-28T06:03:16.046Z,17.50
2018-08-28T06:05:45.167Z,17.50
2018-08-28T06:08:13.669Z,17.40
2018-08-28T06:10:42.240Z,17.40
2018-08-28T06:13:11.032Z,17.40
2018-08-28T06:15:39.782Z,17.40
2018-08-28T06:18:08.518Z,17.40
2018-08-28T06:20:37.035Z,17.50
2018-08-28T06:23:05.710Z,17.50
2018-08-28T06:25:34.201Z,17.40
2018-08-28T06:28:02.722Z,17.40
2018-08-28T06:30:31.247Z,17.50
2018-08-28T06:32:59.733Z,17.40
2018-08-28T06:35:28.281Z,17.40
2018-08-28T06:37:56.865Z,17.50
2018-08-28T06:40:25.353Z,17.50
2018-08-28T06:42:53.857Z,17.40
2018-08-28T06:45:22.367Z,17.50
2018-08-28T06:47:50.894Z,17.50
2018-08-28T06:50:19.374Z,17.50
2018-08-28T06:52:47.888Z,17.40
2018-08-28T06:55:16.384Z,17.50
2018-08-28T06:57:44.905Z,17.50
2018-08-28T07:00:13.397Z,17.50
2018-08-28T07:02:41.921Z,17.50
2018-08-28T07:05:10.482Z,17.50
2018-08-28T07:07:39.406Z,17.50
2018-08-28T07:10:07.957Z,17.50
2018-08-28T07:12:36.497Z,17.50
2018-08-28T07:15:05.025Z,17.60
2018-08-28T07:17:33.625Z,17.60
2018-08-28T07:20:02.316Z,17.60
2018-08-28T07:22:30.869Z,17.70
2018-08-28T07:24:59.367Z,17.70
2018-08-28T07:27:27.898Z,17.70
2018-08-28T07:29:56.444Z,17.70
2018-08-28T07:32:24.994Z,17.70
2018-08-28T07:34:53.526Z,17.70
2018-08-28T07:37:22.099Z,17.80
2018-08-28T07:39:50.654Z,17.80
2018-08-28T07:42:19.146Z,17.80
2018-08-28T07:44:47.622Z,17.80
2018-08-28T07:47:16.139Z,17.90
2018-08-28T07:49:44.708Z,17.90
2018-08-28T07:52:13.203Z,17.90
2018-08-28T07:54:42.079Z,17.90
2018-08-28T07:57:10.594Z,17.90
2018-08-28T07:59:39.082Z,17.90
2018-08-28T08:02:07.712Z,18.00
2018-08-28T08:04:36.757Z,18.00
2018-08-28T08:07:05.968Z,18.00
2018-08-28T08:09:34.455Z,18.10
2018-08-28T08:12:02.988Z,18.10
2018-08-28T08:14:31.508Z,18.10
2018-08-28T08:17:00.114Z,18.10
2018-08-28T08:19:28.631Z,18.10
2018-08-28T08:21:57.192Z,18.20
2018-08-28T08:24:25.665Z,18.20
2018-08-28T08:26:54.207Z,18.20
2018-08-28T08:29:22.723Z,18.20
2018-08-28T08:31:51.274Z,18.20
2018-08-28T08:34:19.765Z,18.20
2018-08-28T08:36:48.332Z,18.30
2018-08-28T08:39:16.859Z,18.30
2018-08-28T08:41:45.337Z,18.30
2018-08-28T08:44:13.923Z,18.30
2018-08-28T08:46:42.421Z,18.30
2018-08-28T08:49:10.942Z,18.30
2018-08-28T08:51:39.447Z,18.40
2018-08-28T08:54:07.949Z,18.40
2018-08-28T08:56:36.451Z,18.40
2018-08-28T08:59:05.002Z,18.40
2018-08-28T09:01:33.472Z,18.40
2018-08-28T09:04:02.351Z,18.50
2018-08-28T09:06:30.843Z,18.50
2018-08-28T09:08:59.504Z,18.50
2018-08-28T09:11:27.987Z,18.60
2018-08-28T09:13:56.610Z,18.60
2018-08-28T09:16:25.161Z,18.60
2018-08-28T09:18:53.738Z,18.60
2018-08-28T09:21:22.266Z,18.70
2018-08-28T09:23:50.811Z,18.70
2018-08-28T09:26:19.417Z,18.70
2018-08-28T09:28:48.031Z,18.70
2018-08-28T09:31:16.905Z,18.70
2018-08-28T09:33:45.369Z,18.80
2018-08-28T09:36:13.981Z,18.90
2018-08-28T09:38:42.595Z,19.00
2018-08-28T09:41:11.107Z,19.10
2018-08-28T09:43:39.660Z,19.10
2018-08-28T09:46:08.204Z,19.20
2018-08-28T09:48:36.766Z,19.10
2018-08-28T09:51:05.398Z,19.10
2018-08-28T09:53:33.973Z,19.00
2018-08-28T09:56:02.505Z,19.00
2018-08-28T09:58:31.083Z,19.10
2018-08-28T10:01:04.907Z,19.10
2018-08-28T10:03:33.504Z,19.10
2018-08-28T10:06:02.043Z,19.10
2018-08-28T10:08:30.631Z,19.10
2018-08-28T10:10:59.692Z,19.20
2018-08-28T10:13:28.333Z,19.30
2018-08-28T10:15:57.097Z,19.40
2018-08-28T10:18:25.649Z,19.60
2018-08-28T10:20:54.161Z,19.70
2018-08-28T10:23:22.728Z,19.90
2018-08-28T10:25:51.782Z,20.00
2018-08-28T10:28:20.355Z,20.10
2018-08-28T10:30:48.884Z,20.20
2018-08-28T10:33:17.434Z,20.10
2018-08-28T10:35:45.979Z,20.20
2018-08-28T10:38:14.878Z,20.50
2018-08-28T10:40:43.353Z,20.60
2018-08-28T10:43:11.969Z,20.80
2018-08-28T10:45:40.526Z,21.00
2018-08-28T10:48:09.047Z,21.20
2018-08-28T10:50:37.641Z,21.40
2018-08-28T10:53:06.235Z,21.50
2018-08-28T10:55:34.784Z,21.50
2018-08-28T10:58:03.307Z,21.60
2018-08-28T11:00:31.937Z,21.60
2018-08-28T11:03:00.470Z,21.70
2018-08-28T11:05:29.075Z,21.90
2018-08-28T11:07:57.589Z,22.10
2018-08-28T11:10:26.186Z,22.20
2018-08-28T11:12:54.765Z,22.30
2018-08-28T11:15:23.334Z,22.50
2018-08-28T11:17:51.871Z,22.50
2018-08-28T11:20:20.438Z,22.60
2018-08-28T11:22:49.018Z,22.60
2018-08-28T11:25:17.554Z,22.70
2018-08-28T11:27:46.185Z,22.60
2018-08-28T11:30:15.065Z,22.30
2018-08-28T11:32:43.666Z,22.20
2018-08-28T11:35:12.229Z,22.30
2018-08-28T11:37:40.760Z,22.50
2018-08-28T11:40:09.422Z,22.70
2018-08-28T11:42:37.970Z,22.80
2018-08-28T11:45:07.223Z,23.00
2018-08-28T11:47:35.855Z,23.10
2018-08-28T11:50:04.475Z,23.10
2018-08-28T11:52:33.079Z,22.80
2018-08-28T11:55:01.639Z,22.40
2018-08-28T11:57:30.170Z,22.10
2018-08-28T11:59:58.755Z,22.10
2018-08-28T12:02:27.295Z,22.40
2018-08-28T12:04:56.025Z,22.80
2018-08-28T12:07:24.629Z,23.00
2018-08-28T12:09:53.110Z,23.10
2018-08-28T12:12:21.791Z,22.90
2018-08-28T12:14:50.355Z,22.90
2018-08-28T12:17:18.871Z,22.80
2018-08-28T12:19:47.424Z,22.70
2018-08-28T12:22:15.951Z,22.70
2018-08-28T12:24:44.487Z,22.60
2018-08-28T12:27:13.006Z,22.60
2018-08-28T12:29:41.613Z,22.70
2018-08-28T12:32:10.096Z,22.60
2018-08-28T12:34:38.671Z,22.60
2018-08-28T12:37:07.170Z,22.60
2018-08-28T12:39:35.721Z,22.60
2018-08-28T12:42:04.231Z,22.60
2018-08-28T12:44:32.730Z,22.60
2018-08-28T12:47:01.273Z,22.60
2018-08-28T12:49:29.844Z,22.60
2018-08-28T12:51:58.349Z,22.50
2018-08-28T12:54:26.827Z,22.50
2018-08-28T12:56:55.350Z,22.50
2018-08-28T12:59:23.844Z,22.50
2018-08-28T13:01:52.370Z,22.40
2018-08-28T13:04:20.856Z,22.40
2018-08-28T13:06:49.374Z,22.40
2018-08-28T13:09:17.863Z,22.50
2018-08-28T13:11:46.495Z,22.50
2018-08-28T13:14:15.021Z,22.50
2018-08-28T13:16:43.538Z,22.50
2018-08-28T13:19:12.021Z,22.50
2018-08-28T13:21:40.538Z,22.50
2018-08-28T13:24:09.032Z,22.50
2018-08-28T13:26:37.538Z,22.50
2018-08-28T13:29:06.343Z,22.50
2018-08-28T13:31:34.962Z,22.50
2018-08-28T13:34:03.517Z,22.60
2018-08-28T13:36:32.086Z,22.60
2018-08-28T13:39:01.229Z,22.60
2018-08-28T13:41:29.825Z,22.60
2018-08-28T13:43:58.398Z,22.60
2018-08-28T13:46:26.985Z,22.60
2018-08-28T13:48:55.519Z,22.60
2018-08-28T13:51:24.130Z,22.50
2018-08-28T13:53:52.824Z,22.60
2018-08-28T13:56:21.319Z,22.60
2018-08-28T13:58:50.791Z,22.60
2018-08-28T14:01:19.350Z,22.60
2018-08-28T14:03:47.880Z,22.60
2018-08-28T14:06:16.478Z,22.60
2018-08-28T14:08:45.024Z,22.60
2018-08-28T14:11:13.572Z,22.60
2018-08-28T14:13:42.472Z,22.60
2018-08-28T14:16:10.978Z,22.60
2018-08-28T14:18:39.509Z,22.70
2018-08-28T14:21:08.028Z,22.70
2018-08-28T14:23:36.585Z,22.70
2018-08-28T14:26:05.320Z,22.70
2018-08-28T14:28:33.896Z,22.70
2018-08-28T14:31:02.462Z,22.70
2018-08-28T14:33:31.018Z,22.70
2018-08-28T14:35:59.570Z,22.70
2018-08-28T14:38:28.120Z,22.70
2018-08-28T14:40:56.737Z,22.70
2018-08-28T14:43:25.309Z,22.70
2018-08-28T14:45:53.857Z,22.70
2018-08-28T14:48:22.508Z,22.70
2018-08-28T14:50:51.145Z,22.70
2018-08-28T14:53:19.709Z,22.70
2018-08-28T14:55:48.232Z,22.70
2018-08-28T14:58:16.803Z,22.70
2018-08-28T15:00:45.373Z,22.70
2018-08-28T15:03:13.941Z,22.70
2018-08-28T15:05:42.530Z,22.70
2018-08-28T15:08:11.095Z,22.70
2018-08-28T15:10:39.617Z,22.70
2018-08-28T15:13:08.260Z,22.70
2018-08-28T15:15:36.824Z,22.70
2018-08-28T15:18:05.436Z,22.70
2018-08-28T15:20:34.022Z,22.70
2018-08-28T15:23:02.691Z,22.70
2018-08-28T15:25:31.269Z,22.70
2018-08-28T15:27:59.830Z,22.70
2018-08-28T15:30:28.367Z,22.70
2018-08-28T15:32:56.925Z,22.70
2018-08-28T15:35:25.481Z,22.70
2018-08-28T15:37:54.043Z,22.60
2018-08-28T15:40:22.620Z,22.60
2018-08-28T15:42:51.193Z,22.60
2018-08-28T15:45:19.730Z,22.60
2018-08-28T15:47:48.308Z,22.60
2018-08-28T15:50:16.834Z,22.60
2018-08-28T15:52:45.402Z,22.60
2018-08-28T15:55:14.047Z,22.60
2018-08-28T15:57:42.629Z,22.50
2018-08-28T16:00:11.217Z,22.60
2018-08-28T16:02:39.741Z,22.50
2018-08-28T16:05:08.298Z,22.60
2018-08-28T16:07:36.814Z,22.50
2018-08-28T16:10:05.790Z,22.60
2018-08-28T16:12:34.349Z,22.50
2018-08-28T16:15:02.908Z,22.60
2018-08-28T16:17:31.444Z,22.60
2018-08-28T16:20:00.025Z,22.50
2018-08-28T16:22:32.747Z,22.60
2018-08-28T16:25:01.333Z,22.60
2018-08-28T16:27:29.925Z,22.60
2018-08-28T16:29:58.644Z,22.60
2018-08-28T16:32:27.176Z,22.60
2018-08-28T16:34:55.833Z,22.60
2018-08-28T16:37:24.408Z,22.50
2018-08-28T16:39:53.000Z,22.50
2018-08-28T16:42:21.536Z,22.50
2018-08-28T16:44:50.090Z,22.50
2018-08-28T16:47:18.671Z,22.50
2018-08-28T16:49:47.230Z,22.50
2018-08-28T16:52:15.844Z,22.50
2018-08-28T16:54:44.660Z,22.50
2018-08-28T16:57:13.195Z,22.50
2018-08-28T16:59:41.757Z,22.40
2018-08-28T17:02:10.289Z,22.40
2018-08-28T17:04:38.838Z,22.40
2018-08-28T17:07:07.459Z,22.40
2018-08-28T17:09:36.014Z,22.40
2018-08-28T17:12:04.906Z,22.40
2018-08-28T17:14:33.479Z,22.40
2018-08-28T17:17:02.008Z,22.40
2018-08-28T17:19:30.597Z,22.40
2018-08-28T17:21:59.185Z,22.30
2018-08-28T17:24:27.737Z,22.30
2018-08-28T17:26:56.275Z,22.30
2018-08-28T17:29:24.906Z,22.30
2018-08-28T17:31:53.533Z,22.30
2018-08-28T17:34:22.105Z,22.30
2018-08-28T17:36:50.644Z,22.30
2018-08-28T17:39:19.199Z,22.30
2018-08-28T17:41:47.753Z,22.30
2018-08-28T17:44:16.322Z,22.20
2018-08-28T17:46:44.921Z,22.20
2018-08-28T17:49:13.515Z,22.20
2018-08-28T17:51:42.028Z,22.20
2018-08-28T17:54:10.559Z,22.10
2018-08-28T17:56:39.112Z,22.10
2018-08-28T17:59:07.649Z,22.10
2018-08-28T18:01:36.239Z,22.10
2018-08-28T18:04:04.819Z,22.10
2018-08-28T18:06:33.382Z,22.10
2018-08-28T18:09:01.957Z,22.10
2018-08-28T18:11:30.552Z,22.00
2018-08-28T18:13:59.097Z,22.00
2018-08-28T18:16:27.720Z,22.00
2018-08-28T18:18:56.249Z,22.00
2018-08-28T18:21:24.810Z,22.00
2018-08-28T18:23:53.333Z,21.90
2018-08-28T18:26:21.921Z,21.90
2018-08-28T18:28:50.534Z,21.90
2018-08-28T18:31:19.147Z,21.90
2018-08-28T18:33:47.680Z,21.90
2018-08-28T18:36:16.216Z,21.90
2018-08-28T18:38:44.843Z,21.90
2018-08-28T18:41:13.391Z,21.90
2018-08-28T18:43:41.907Z,21.80
2018-08-28T18:46:10.462Z,21.80
2018-08-28T18:48:38.952Z,21.80
2018-08-28T18:51:07.508Z,21.80
2018-08-28T18:53:36.003Z,21.80
2018-08-28T18:56:04.632Z,21.70
2018-08-28T18:58:33.115Z,21.70
2018-08-28T19:01:01.639Z,21.70
2018-08-28T19:03:30.105Z,21.70
2018-08-28T19:05:58.618Z,21.60
2018-08-28T19:08:27.125Z,21.60
2018-08-28T19:10:55.797Z,21.60
2018-08-28T19:13:24.285Z,21.60
2018-08-28T19:15:52.894Z,21.60
2018-08-28T19:18:21.394Z,21.60
2018-08-28T19:20:49.933Z,21.60
2018-08-28T19:23:18.423Z,21.50
2018-08-28T19:25:47.063Z,21.50
2018-08-28T19:28:15.661Z,21.50
2018-08-28T19:30:44.202Z,21.50
2018-08-28T19:33:12.784Z,21.40
2018-08-28T19:35:41.320Z,21.40
2018-08-28T19:38:09.942Z,21.40
2018-08-28T19:40:38.503Z,21.30
2018-08-28T19:43:07.120Z,21.30
2018-08-28T19:45:35.847Z,21.30
2018-08-28T19:48:04.698Z,21.30
2018-08-28T19:50:33.246Z,21.30
2018-08-28T19:53:01.837Z,21.30
2018-08-28T19:55:30.423Z,21.30
2018-08-28T19:57:59.088Z,21.20
2018-08-28T20:00:27.757Z,21.20
2018-08-28T20:02:56.324Z,21.20
2018-08-28T20:05:24.900Z,21.20
2018-08-28T20:07:53.463Z,21.10
2018-08-28T20:10:22.018Z,21.10
2018-08-28T20:12:50.558Z,21.10
2018-08-28T20:15:19.140Z,21.10
2018-08-28T20:17:47.715Z,21.10
2018-08-28T20:20:16.238Z,21.10
2018-08-28T20:22:44.907Z,21.00
2018-08-28T20:25:13.540Z,21.00
2018-08-28T20:27:42.125Z,21.00
2018-08-28T20:30:10.689Z,20.90
2018-08-28T20:32:39.199Z,20.90
2018-08-28T20:35:08.089Z,20.90
2018-08-28T20:37:36.903Z,20.90
2018-08-28T20:40:06.368Z,20.90
2018-08-28T20:42:34.900Z,20.80
2018-08-28T20:45:03.439Z,20.80
2018-08-28T20:47:31.975Z,20.80
2018-08-28T20:50:00.505Z,20.80
2018-08-28T20:52:29.009Z,20.80
2018-08-28T20:54:57.498Z,20.70
2018-08-28T20:57:26.028Z,20.70
2018-08-28T20:59:54.547Z,20.70
2018-08-28T21:02:23.126Z,20.70
2018-08-28T21:04:51.726Z,20.60
2018-08-28T21:07:20.258Z,20.60
2018-08-28T21:09:48.756Z,20.60
2018-08-28T21:12:17.246Z,20.60
2018-08-28T21:14:45.772Z,20.60
2018-08-28T21:17:14.257Z,20.50
2018-08-28T21:19:42.826Z,20.50
2018-08-28T21:22:11.339Z,20.40
2018-08-28T21:24:39.906Z,20.50
2018-08-28T21:27:08.477Z,20.40
2018-08-28T21:29:37.061Z,20.40
2018-08-28T21:32:05.605Z,20.40
2018-08-28T21:34:34.158Z,20.40
2018-08-28T21:37:02.687Z,20.40
2018-08-28T21:39:31.238Z,20.30
2018-08-28T21:41:59.797Z,20.30
2018-08-28T21:44:28.361Z,20.30
2018-08-28T21:46:56.887Z,20.30
2018-08-28T21:49:25.454Z,20.30
2018-08-28T21:51:54.030Z,20.20
2018-08-28T21:54:22.621Z,20.20
2018-08-28T21:56:51.158Z,20.20
2018-08-28T21:59:19.722Z,20.10
2018-08-28T22:01:48.270Z,20.10
2018-08-28T22:04:16.846Z,20.10
2018-08-28T22:06:50.782Z,20.10
2018-08-28T22:09:19.385Z,20.10
2018-08-28T22:11:47.974Z,20.00
2018-08-28T22:14:16.544Z,20.00
2018-08-28T22:16:45.066Z,20.00
2018-08-28T22:19:13.656Z,20.00
2018-08-28T22:21:42.129Z,19.90
2018-08-28T22:24:10.646Z,19.90
2018-08-28T22:26:39.160Z,19.90
2018-08-28T22:29:07.685Z,19.90
2018-08-28T22:31:36.162Z,19.90
2018-08-28T22:34:04.719Z,19.80
2018-08-28T22:36:33.268Z,19.80
2018-08-28T22:39:01.821Z,19.80
2018-08-28T22:41:30.305Z,19.80
2018-08-28T22:43:58.807Z,19.70
2018-08-28T22:46:27.354Z,19.70
2018-08-28T22:48:55.843Z,19.70
2018-08-28T22:51:24.315Z,19.70
2018-08-28T22:53:52.831Z,19.70
2018-08-28T22:56:21.334Z,19.60
2018-08-28T22:58:49.845Z,19.60
2018-08-28T23:01:18.334Z,19.60
2018-08-28T23:03:47.137Z,19.60
2018-08-28T23:06:15.635Z,19.60
2018-08-28T23:08:44.126Z,19.50
2018-08-28T23:11:12.641Z,19.50
2018-08-28T23:13:41.157Z,19.50
2018-08-28T23:16:09.675Z,19.50
2018-08-28T23:18:38.153Z,19.50
2018-08-28T23:21:06.683Z,19.40
2018-08-28T23:23:35.161Z,19.40
2018-08-28T23:26:03.672Z,19.40
2018-08-28T23:28:32.179Z,19.40
2018-08-28T23:31:00.705Z,19.40
2018-08-28T23:33:29.212Z,19.40
2018-08-28T23:35:57.708Z,19.30
2018-08-28T23:38:26.178Z,19.30
2018-08-28T23:40:54.686Z,19.30
2018-08-28T23:43:23.181Z,19.30
2018-08-28T23:45:51.683Z,19.20
2018-08-28T23:48:20.355Z,19.20
2018-08-28T23:50:48.867Z,19.20
2018-08-28T23:53:17.347Z,19.20
2018-08-28T23:55:45.866Z,19.20
2018-08-28T23:58:14.355Z,19.10
